sensor_id;sensor_type;location;lat;lon;timestamp;pressure;altitude;pressure_sealevel;temperature;humidity
12969;BME280;6549;53.128;8.182;2023-05-01T00:01:29;101729.25;;;6.63;100.00
12969;BME280;6549;53.128;8.182;2023-05-01T00:04:29;101727.16;;;6.60;100.00
12969;BME280;6549;53.128;8.182;2023-05-01T00:07:32;101720.34;;;6.54;100.00
12969;BME280;6549;53.128;8.182;2023-05-01T00:10:34;101714.75;;;6.50;100.00
12969;BME280;6549;53.128;8.182;2023-05-01T00:13:35;101708.81;;;6.48;100.00
12969;BME280;6549;53.128;8.182;2023-05-01T00:16:36;101705.59;;;6.46;100.00
12969;BME280;6549;53.128;8.182;2023-05-01T00:19:36;101711.63;;;6.40;100.00
12969;BME280;6549;53.128;8.182;2023-05-01T00:22:37;101701.88;;;6.30;100.00
12969;BME280;6549;53.128;8.182;2023-05-01T00:25:37;101700.50;;;6.24;100.00
12969;BME280;6549;53.128;8.182;2023-05-01T00:28:38;101694.56;;;6.22;100.00
12969;BME280;6549;53.128;8.182;2023-05-01T00:31:38;101698.09;;;6.22;100.00
12969;BME280;6549;53.128;8.182;2023-05-01T00:34:40;101685.91;;;6.20;100.00
12969;BME280;6549;53.128;8.182;2023-05-01T00:37:41;101682.41;;;6.19;100.00
12969;BME280;6549;53.128;8.182;2023-05-01T00:40:45;101685.13;;;6.19;100.00
12969;BME280;6549;53.128;8.182;2023-05-01T00:43:45;101680.81;;;6.18;100.00
12969;BME280;6549;53.128;8.182;2023-05-01T00:46:45;101679.19;;;6.17;100.00
12969;BME280;6549;53.128;8.182;2023-05-01T00:49:46;101680.31;;;6.16;100.00
12969;BME280;6549;53.128;8.182;2023-05-01T00:52:47;101667.22;;;6.10;100.00
12969;BME280;6549;53.128;8.182;2023-05-01T00:55:47;101668.53;;;6.04;100.00
12969;BME280;6549;53.128;8.182;2023-05-01T00:58:49;101664.38;;;6.06;100.00
12969;BME280;6549;53.128;8.182;2023-05-01T01:01:51;101662.09;;;6.08;100.00
12969;BME280;6549;53.128;8.182;2023-05-01T01:04:51;101654.91;;;6.04;100.00
12969;BME280;6549;53.128;8.182;2023-05-01T01:08:14;101655.97;;;6.11;100.00
12969;BME280;6549;53.128;8.182;2023-05-01T01:11:39;101653.28;;;6.03;100.00
12969;BME280;6549;53.128;8.182;2023-05-01T01:14:54;101644.19;;;5.99;100.00
12969;BME280;6549;53.128;8.182;2023-05-01T01:18:08;101646.31;;;5.93;100.00
12969;BME280;6549;53.128;8.182;2023-05-01T01:21:17;101647.09;;;5.94;100.00
12969;BME280;6549;53.128;8.182;2023-05-01T01:31:19;101638.91;;;5.94;100.00
12969;BME280;6549;53.128;8.182;2023-05-01T01:34:27;101635.38;;;5.93;100.00
12969;BME280;6549;53.128;8.182;2023-05-01T01:37:50;101629.34;;;5.88;100.00
12969;BME280;6549;53.128;8.182;2023-05-01T01:40:58;101621.78;;;5.84;100.00
12969;BME280;6549;53.128;8.182;2023-05-01T01:44:05;101615.88;;;5.82;100.00
12969;BME280;6549;53.128;8.182;2023-05-01T01:47:11;101619.72;;;5.81;100.00
12969;BME280;6549;53.128;8.182;2023-05-01T01:50:12;101607.69;;;5.82;100.00
12969;BME280;6549;53.128;8.182;2023-05-01T01:53:17;101606.88;;;5.91;100.00
12969;BME280;6549;53.128;8.182;2023-05-01T01:56:19;101604.63;;;5.93;100.00
12969;BME280;6549;53.128;8.182;2023-05-01T01:59:22;101584.41;;;5.85;100.00
12969;BME280;6549;53.128;8.182;2023-05-01T02:02:23;101582.66;;;5.80;100.00
12969;BME280;6549;53.128;8.182;2023-05-01T02:05:25;101582.34;;;5.82;100.00
12969;BME280;6549;53.128;8.182;2023-05-01T02:08:29;101574.50;;;5.80;100.00
12969;BME280;6549;53.128;8.182;2023-05-01T02:11:31;101570.38;;;5.74;100.00
12969;BME280;6549;53.128;8.182;2023-05-01T02:14:33;101574.25;;;5.73;100.00
12969;BME280;6549;53.128;8.182;2023-05-01T02:17:35;101569.09;;;5.72;100.00
12969;BME280;6549;53.128;8.182;2023-05-01T02:20:37;101564.00;;;5.70;100.00
12969;BME280;6549;53.128;8.182;2023-05-01T02:23:37;101560.13;;;5.71;100.00
12969;BME280;6549;53.128;8.182;2023-05-01T02:26:42;101555.94;;;5.74;100.00
12969;BME280;6549;53.128;8.182;2023-05-01T02:29:45;101554.34;;;5.73;100.00
12969;BME280;6549;53.128;8.182;2023-05-01T02:32:46;101557.00;;;5.81;100.00
12969;BME280;6549;53.128;8.182;2023-05-01T02:35:46;101552.75;;;5.72;100.00
12969;BME280;6549;53.128;8.182;2023-05-01T02:38:47;101541.91;;;5.63;100.00
12969;BME280;6549;53.128;8.182;2023-05-01T02:41:51;101544.19;;;5.61;100.00
12969;BME280;6549;53.128;8.182;2023-05-01T02:44:56;101533.91;;;5.58;100.00
12969;BME280;6549;53.128;8.182;2023-05-01T02:47:58;101532.34;;;5.57;100.00
12969;BME280;6549;53.128;8.182;2023-05-01T02:51:00;101531.41;;;5.53;100.00
12969;BME280;6549;53.128;8.182;2023-05-01T02:54:01;101529.16;;;5.55;100.00
12969;BME280;6549;53.128;8.182;2023-05-01T02:57:03;101523.44;;;5.48;100.00
12969;BME280;6549;53.128;8.182;2023-05-01T03:00:04;101529.09;;;5.43;100.00
12969;BME280;6549;53.128;8.182;2023-05-01T03:03:08;101531.31;;;5.41;100.00
12969;BME280;6549;53.128;8.182;2023-05-01T03:06:08;101523.50;;;5.39;100.00
12969;BME280;6549;53.128;8.182;2023-05-01T03:09:09;101516.31;;;5.35;100.00
12969;BME280;6549;53.128;8.182;2023-05-01T03:12:09;101508.13;;;5.35;100.00
12969;BME280;6549;53.128;8.182;2023-05-01T03:15:09;101507.22;;;5.31;100.00
12969;BME280;6549;53.128;8.182;2023-05-01T03:18:11;101497.75;;;5.28;100.00
12969;BME280;6549;53.128;8.182;2023-05-01T03:21:11;101496.50;;;5.26;100.00
12969;BME280;6549;53.128;8.182;2023-05-01T03:24:12;101494.59;;;5.26;100.00
12969;BME280;6549;53.128;8.182;2023-05-01T03:27:12;101489.78;;;5.23;100.00
12969;BME280;6549;53.128;8.182;2023-05-01T03:30:12;101483.19;;;5.24;100.00
12969;BME280;6549;53.128;8.182;2023-05-01T03:33:13;101473.78;;;5.22;100.00
12969;BME280;6549;53.128;8.182;2023-05-01T03:36:14;101472.63;;;5.23;100.00
12969;BME280;6549;53.128;8.182;2023-05-01T03:39:15;101464.66;;;5.18;100.00
12969;BME280;6549;53.128;8.182;2023-05-01T03:42:15;101462.13;;;5.13;100.00
12969;BME280;6549;53.128;8.182;2023-05-01T03:45:15;101460.41;;;5.08;100.00
12969;BME280;6549;53.128;8.182;2023-05-01T03:48:17;101460.72;;;5.07;100.00
12969;BME280;6549;53.128;8.182;2023-05-01T03:51:17;101459.13;;;5.06;100.00
12969;BME280;6549;53.128;8.182;2023-05-01T03:54:17;101449.69;;;5.03;100.00
12969;BME280;6549;53.128;8.182;2023-05-01T03:57:18;101446.63;;;5.05;100.00
12969;BME280;6549;53.128;8.182;2023-05-01T04:00:22;101451.16;;;5.01;100.00
12969;BME280;6549;53.128;8.182;2023-05-01T04:03:22;101443.31;;;4.99;100.00
12969;BME280;6549;53.128;8.182;2023-05-01T04:06:23;101446.03;;;4.99;100.00
12969;BME280;6549;53.128;8.182;2023-05-01T04:09:23;101448.91;;;5.03;100.00
12969;BME280;6549;53.128;8.182;2023-05-01T04:12:23;101450.69;;;4.98;100.00
12969;BME280;6549;53.128;8.182;2023-05-01T04:15:24;101449.75;;;4.94;100.00
12969;BME280;6549;53.128;8.182;2023-05-01T04:18:24;101459.97;;;4.97;100.00
12969;BME280;6549;53.128;8.182;2023-05-01T04:21:24;101446.50;;;5.01;100.00
12969;BME280;6549;53.128;8.182;2023-05-01T04:24:25;101442.66;;;5.02;100.00
12969;BME280;6549;53.128;8.182;2023-05-01T04:27:25;101443.13;;;5.04;100.00
12969;BME280;6549;53.128;8.182;2023-05-01T04:30:26;101443.13;;;5.04;100.00
12969;BME280;6549;53.128;8.182;2023-05-01T04:33:26;101440.97;;;5.10;100.00
12969;BME280;6549;53.128;8.182;2023-05-01T04:36:27;101436.03;;;5.12;100.00
12969;BME280;6549;53.128;8.182;2023-05-01T04:39:28;101436.16;;;5.15;100.00
12969;BME280;6549;53.128;8.182;2023-05-01T04:42:30;101427.16;;;5.15;100.00
12969;BME280;6549;53.128;8.182;2023-05-01T04:45:31;101424.94;;;5.17;100.00
12969;BME280;6549;53.128;8.182;2023-05-01T04:48:31;101424.56;;;5.18;100.00
12969;BME280;6549;53.128;8.182;2023-05-01T04:51:31;101428.38;;;5.26;100.00
12969;BME280;6549;53.128;8.182;2023-05-01T04:54:32;101419.72;;;5.24;100.00
12969;BME280;6549;53.128;8.182;2023-05-01T04:57:32;101414.56;;;5.31;100.00
12969;BME280;6549;53.128;8.182;2023-05-01T05:00:32;101421.19;;;5.42;100.00
12969;BME280;6549;53.128;8.182;2023-05-01T05:03:33;101421.56;;;5.53;100.00
12969;BME280;6549;53.128;8.182;2023-05-01T05:06:33;101414.69;;;5.67;100.00
12969;BME280;6549;53.128;8.182;2023-05-01T05:09:33;101421.75;;;5.80;100.00
12969;BME280;6549;53.128;8.182;2023-05-01T05:12:33;101419.13;;;5.93;100.00
12969;BME280;6549;53.128;8.182;2023-05-01T05:15:34;101420.25;;;6.04;100.00
12969;BME280;6549;53.128;8.182;2023-05-01T05:18:34;101422.88;;;6.12;100.00
12969;BME280;6549;53.128;8.182;2023-05-01T05:21:34;101417.00;;;6.35;100.00
12969;BME280;6549;53.128;8.182;2023-05-01T05:24:35;101415.09;;;6.59;100.00
12969;BME280;6549;53.128;8.182;2023-05-01T05:27:36;101415.56;;;7.01;100.00
12969;BME280;6549;53.128;8.182;2023-05-01T05:30:37;101413.06;;;7.36;100.00
12969;BME280;6549;53.128;8.182;2023-05-01T05:33:37;101418.31;;;7.69;100.00
12969;BME280;6549;53.128;8.182;2023-05-01T05:36:38;101413.41;;;7.90;100.00
12969;BME280;6549;53.128;8.182;2023-05-01T05:39:38;101422.50;;;7.94;100.00
12969;BME280;6549;53.128;8.182;2023-05-01T05:42:38;101411.91;;;8.08;100.00
12969;BME280;6549;53.128;8.182;2023-05-01T05:45:39;101423.41;;;8.14;100.00
12969;BME280;6549;53.128;8.182;2023-05-01T05:48:39;101405.94;;;8.34;100.00
12969;BME280;6549;53.128;8.182;2023-05-01T05:51:39;101403.16;;;8.50;100.00
12969;BME280;6549;53.128;8.182;2023-05-01T05:54:40;101411.44;;;8.85;100.00
12969;BME280;6549;53.128;8.182;2023-05-01T05:57:40;101403.22;;;8.85;100.00
12969;BME280;6549;53.128;8.182;2023-05-01T06:00:41;101405.53;;;9.02;100.00
12969;BME280;6549;53.128;8.182;2023-05-01T06:03:41;101406.06;;;9.27;100.00
12969;BME280;6549;53.128;8.182;2023-05-01T06:06:41;101396.88;;;9.58;100.00
12969;BME280;6549;53.128;8.182;2023-05-01T06:09:41;101397.94;;;9.72;100.00
12969;BME280;6549;53.128;8.182;2023-05-01T06:12:42;101401.63;;;10.03;100.00
12969;BME280;6549;53.128;8.182;2023-05-01T06:15:42;101398.06;;;10.21;100.00
12969;BME280;6549;53.128;8.182;2023-05-01T06:18:43;101400.59;;;10.33;100.00
12969;BME280;6549;53.128;8.182;2023-05-01T06:21:44;101398.50;;;10.50;100.00
12969;BME280;6549;53.128;8.182;2023-05-01T06:24:44;101394.88;;;10.68;100.00
12969;BME280;6549;53.128;8.182;2023-05-01T06:27:45;101390.47;;;10.90;100.00
12969;BME280;6549;53.128;8.182;2023-05-01T06:30:45;101386.56;;;10.91;100.00
12969;BME280;6549;53.128;8.182;2023-05-01T06:33:46;101388.75;;;11.08;100.00
12969;BME280;6549;53.128;8.182;2023-05-01T06:36:47;101385.94;;;11.05;100.00
12969;BME280;6549;53.128;8.182;2023-05-01T06:39:47;101386.56;;;11.24;100.00
12969;BME280;6549;53.128;8.182;2023-05-01T06:42:47;101383.75;;;11.51;100.00
12969;BME280;6549;53.128;8.182;2023-05-01T06:45:48;101383.44;;;11.93;100.00
12969;BME280;6549;53.128;8.182;2023-05-01T06:48:48;101381.78;;;12.29;100.00
12969;BME280;6549;53.128;8.182;2023-05-01T06:51:48;101374.69;;;12.28;95.54
12969;BME280;6549;53.128;8.182;2023-05-01T06:54:48;101368.47;;;12.38;92.01
12969;BME280;6549;53.128;8.182;2023-05-01T06:57:49;101374.16;;;12.66;91.17
12969;BME280;6549;53.128;8.182;2023-05-01T07:00:49;101369.19;;;12.93;91.85
12969;BME280;6549;53.128;8.182;2023-05-01T07:03:49;101368.19;;;13.26;92.42
12969;BME280;6549;53.128;8.182;2023-05-01T07:06:50;101367.13;;;13.73;89.06
12969;BME280;6549;53.128;8.182;2023-05-01T07:09:50;101367.50;;;13.68;81.86
12969;BME280;6549;53.128;8.182;2023-05-01T07:12:51;101364.81;;;13.96;81.95
12969;BME280;6549;53.128;8.182;2023-05-01T07:15:51;101357.69;;;13.99;79.12
12969;BME280;6549;53.128;8.182;2023-05-01T07:18:52;101355.31;;;13.90;79.87
12969;BME280;6549;53.128;8.182;2023-05-01T07:21:53;101355.75;;;14.38;82.63
12969;BME280;6549;53.128;8.182;2023-05-01T07:24:53;101348.59;;;14.72;74.50
12969;BME280;6549;53.128;8.182;2023-05-01T07:27:54;101355.16;;;15.14;68.61
12969;BME280;6549;53.128;8.182;2023-05-01T07:30:54;101353.25;;;14.93;65.55
12969;BME280;6549;53.128;8.182;2023-05-01T07:33:55;101357.53;;;15.12;66.14
12969;BME280;6549;53.128;8.182;2023-05-01T07:36:55;101352.03;;;15.05;63.40
12969;BME280;6549;53.128;8.182;2023-05-01T07:39:56;101348.84;;;15.10;66.99
12969;BME280;6549;53.128;8.182;2023-05-01T07:42:57;101350.81;;;15.09;64.30
12969;BME280;6549;53.128;8.182;2023-05-01T07:45:58;101352.72;;;15.30;66.39
12969;BME280;6549;53.128;8.182;2023-05-01T07:48:59;101340.47;;;15.31;63.26
12969;BME280;6549;53.128;8.182;2023-05-01T07:51:59;101342.66;;;15.64;65.82
12969;BME280;6549;53.128;8.182;2023-05-01T07:55:00;101332.69;;;15.74;62.34
12969;BME280;6549;53.128;8.182;2023-05-01T07:58:00;101335.94;;;15.65;61.75
12969;BME280;6549;53.128;8.182;2023-05-01T08:01:00;101340.28;;;15.63;63.46
12969;BME280;6549;53.128;8.182;2023-05-01T08:04:01;101324.56;;;16.01;63.09
12969;BME280;6549;53.128;8.182;2023-05-01T08:07:01;101337.50;;;16.18;58.13
12969;BME280;6549;53.128;8.182;2023-05-01T08:10:01;101322.56;;;16.05;60.69
12969;BME280;6549;53.128;8.182;2023-05-01T08:13:02;101330.41;;;16.54;59.43
12969;BME280;6549;53.128;8.182;2023-05-01T08:16:03;101332.00;;;16.93;57.63
12969;BME280;6549;53.128;8.182;2023-05-01T08:19:03;101330.63;;;17.08;56.58
12969;BME280;6549;53.128;8.182;2023-05-01T08:22:04;101333.78;;;16.76;55.17
12969;BME280;6549;53.128;8.182;2023-05-01T08:25:05;101336.63;;;17.03;58.16
12969;BME280;6549;53.128;8.182;2023-05-01T08:28:06;101330.50;;;16.85;53.21
12969;BME280;6549;53.128;8.182;2023-05-01T08:31:06;101331.59;;;16.94;55.89
12969;BME280;6549;53.128;8.182;2023-05-01T08:34:06;101328.63;;;17.08;53.32
12969;BME280;6549;53.128;8.182;2023-05-01T08:37:07;101326.00;;;17.28;53.92
12969;BME280;6549;53.128;8.182;2023-05-01T08:40:07;101330.88;;;17.17;53.68
12969;BME280;6549;53.128;8.182;2023-05-01T08:43:08;101322.47;;;17.81;57.43
12969;BME280;6549;53.128;8.182;2023-05-01T08:46:09;101331.41;;;17.92;52.89
12969;BME280;6549;53.128;8.182;2023-05-01T08:49:14;101324.75;;;18.33;54.64
12969;BME280;6549;53.128;8.182;2023-05-01T08:52:15;101323.41;;;17.71;51.65
12969;BME280;6549;53.128;8.182;2023-05-01T08:55:16;101314.97;;;17.78;50.73
12969;BME280;6549;53.128;8.182;2023-05-01T08:58:18;101320.72;;;17.91;50.43
12969;BME280;6549;53.128;8.182;2023-05-01T09:01:21;101321.31;;;17.52;51.44
12969;BME280;6549;53.128;8.182;2023-05-01T09:04:22;101311.34;;;17.81;56.51
12969;BME280;6549;53.128;8.182;2023-05-01T09:07:23;101310.28;;;17.72;52.52
12969;BME280;6549;53.128;8.182;2023-05-01T09:10:24;101310.06;;;17.86;51.53
12969;BME280;6549;53.128;8.182;2023-05-01T09:13:26;101296.28;;;18.25;52.47
12969;BME280;6549;53.128;8.182;2023-05-01T09:16:28;101300.34;;;18.64;51.62
12969;BME280;6549;53.128;8.182;2023-05-01T09:19:28;101297.00;;;18.92;51.98
12969;BME280;6549;53.128;8.182;2023-05-01T09:22:30;101304.22;;;19.09;50.70
12969;BME280;6549;53.128;8.182;2023-05-01T09:25:30;101296.16;;;18.75;50.76
12969;BME280;6549;53.128;8.182;2023-05-01T09:31:44;101282.28;;;19.11;51.17
12969;BME280;6549;53.128;8.182;2023-05-01T09:34:44;101281.84;;;19.65;50.77
12969;BME280;6549;53.128;8.182;2023-05-01T09:37:48;101280.81;;;20.07;51.81
12969;BME280;6549;53.128;8.182;2023-05-01T09:40:49;101279.59;;;19.92;46.33
12969;BME280;6549;53.128;8.182;2023-05-01T09:43:51;101273.56;;;20.26;50.66
12969;BME280;6549;53.128;8.182;2023-05-01T09:46:51;101274.75;;;20.41;47.58
12969;BME280;6549;53.128;8.182;2023-05-01T09:49:54;101278.25;;;20.58;48.02
12969;BME280;6549;53.128;8.182;2023-05-01T09:52:55;101276.13;;;20.91;45.59
12969;BME280;6549;53.128;8.182;2023-05-01T09:55:59;101276.78;;;20.82;46.84
12969;BME280;6549;53.128;8.182;2023-05-01T09:59:15;101268.63;;;20.75;44.09
12969;BME280;6549;53.128;8.182;2023-05-01T10:02:27;101257.94;;;20.99;44.92
12969;BME280;6549;53.128;8.182;2023-05-01T10:05:41;101266.00;;;21.10;45.75
12969;BME280;6549;53.128;8.182;2023-05-01T10:08:46;101267.34;;;21.05;46.29
12969;BME280;6549;53.128;8.182;2023-05-01T10:11:52;101268.50;;;21.33;45.74
12969;BME280;6549;53.128;8.182;2023-05-01T10:14:54;101261.47;;;21.28;44.39
12969;BME280;6549;53.128;8.182;2023-05-01T10:17:55;101266.47;;;20.67;45.90
12969;BME280;6549;53.128;8.182;2023-05-01T10:20:55;101268.75;;;20.84;44.03
12969;BME280;6549;53.128;8.182;2023-05-01T10:23:56;101265.06;;;20.87;43.68
12969;BME280;6549;53.128;8.182;2023-05-01T10:26:57;101261.63;;;20.54;43.91
12969;BME280;6549;53.128;8.182;2023-05-01T10:30:01;101256.19;;;20.18;44.98
12969;BME280;6549;53.128;8.182;2023-05-01T10:33:04;101257.34;;;20.50;46.15
12969;BME280;6549;53.128;8.182;2023-05-01T10:36:05;101257.19;;;20.57;45.15
12969;BME280;6549;53.128;8.182;2023-05-01T10:39:31;101261.47;;;20.74;45.62
12969;BME280;6549;53.128;8.182;2023-05-01T10:42:32;101251.91;;;21.00;47.54
12969;BME280;6549;53.128;8.182;2023-05-01T10:45:32;101247.25;;;21.23;46.14
12969;BME280;6549;53.128;8.182;2023-05-01T10:48:51;101241.19;;;21.12;44.00
12969;BME280;6549;53.128;8.182;2023-05-01T10:55:33;101240.19;;;21.43;45.76
12969;BME280;6549;53.128;8.182;2023-05-01T11:01:53;101226.03;;;21.98;41.39
12969;BME280;6549;53.128;8.182;2023-05-01T11:04:54;101216.78;;;22.66;45.71
12969;BME280;6549;53.128;8.182;2023-05-01T11:08:30;101219.63;;;23.06;43.58
12969;BME280;6549;53.128;8.182;2023-05-01T11:17:53;101209.84;;;22.79;41.79
12969;BME280;6549;53.128;8.182;2023-05-01T11:20:54;101208.75;;;22.55;41.68
12969;BME280;6549;53.128;8.182;2023-05-01T11:23:55;101208.47;;;22.62;41.65
12969;BME280;6549;53.128;8.182;2023-05-01T11:26:56;101206.47;;;22.63;41.33
12969;BME280;6549;53.128;8.182;2023-05-01T11:29:58;101208.69;;;22.46;42.00
12969;BME280;6549;53.128;8.182;2023-05-01T11:32:59;101204.56;;;21.94;42.71
12969;BME280;6549;53.128;8.182;2023-05-01T11:36:00;101203.25;;;21.74;44.49
12969;BME280;6549;53.128;8.182;2023-05-01T11:39:01;101200.88;;;22.19;44.64
12969;BME280;6549;53.128;8.182;2023-05-01T11:42:05;101201.41;;;22.70;43.33
12969;BME280;6549;53.128;8.182;2023-05-01T11:45:07;101192.75;;;22.77;42.02
12969;BME280;6549;53.128;8.182;2023-05-01T11:48:13;101194.91;;;22.73;43.06
12969;BME280;6549;53.128;8.182;2023-05-01T11:51:15;101187.47;;;23.19;42.74
12969;BME280;6549;53.128;8.182;2023-05-01T11:54:15;101177.47;;;23.09;41.37
12969;BME280;6549;53.128;8.182;2023-05-01T11:57:16;101178.66;;;23.39;41.32
12969;BME280;6549;53.128;8.182;2023-05-01T12:00:30;101178.66;;;22.68;42.18
12969;BME280;6549;53.128;8.182;2023-05-01T12:03:39;101172.84;;;22.84;42.14
12969;BME280;6549;53.128;8.182;2023-05-01T12:06:43;101176.44;;;23.34;41.88
12969;BME280;6549;53.128;8.182;2023-05-01T12:09:44;101171.75;;;23.80;41.23
12969;BME280;6549;53.128;8.182;2023-05-01T12:12:44;101165.50;;;24.03;40.77
12969;BME280;6549;53.128;8.182;2023-05-01T12:15:45;101160.19;;;23.96;39.25
12969;BME280;6549;53.128;8.182;2023-05-01T12:18:46;101163.00;;;23.78;41.41
12969;BME280;6549;53.128;8.182;2023-05-01T12:21:47;101166.03;;;22.95;40.35
12969;BME280;6549;53.128;8.182;2023-05-01T12:24:48;101158.66;;;22.79;42.38
12969;BME280;6549;53.128;8.182;2023-05-01T12:27:50;101163.91;;;22.46;44.18
12969;BME280;6549;53.128;8.182;2023-05-01T12:30:50;101161.06;;;22.68;42.77
12969;BME280;6549;53.128;8.182;2023-05-01T12:33:54;101153.38;;;22.59;43.38
12969;BME280;6549;53.128;8.182;2023-05-01T12:36:55;101155.44;;;21.93;43.47
12969;BME280;6549;53.128;8.182;2023-05-01T12:39:56;101156.47;;;22.09;43.93
12969;BME280;6549;53.128;8.182;2023-05-01T12:42:56;101162.00;;;22.43;43.48
12969;BME280;6549;53.128;8.182;2023-05-01T12:45:57;101161.75;;;22.50;43.33
12969;BME280;6549;53.128;8.182;2023-05-01T12:48:57;101161.44;;;22.48;43.39
12969;BME280;6549;53.128;8.182;2023-05-01T12:51:58;101158.25;;;22.15;44.27
12969;BME280;6549;53.128;8.182;2023-05-01T12:55:02;101148.88;;;21.75;43.83
12969;BME280;6549;53.128;8.182;2023-05-01T12:58:03;101146.84;;;21.41;45.43
12969;BME280;6549;53.128;8.182;2023-05-01T13:01:04;101156.56;;;20.98;45.87
12969;BME280;6549;53.128;8.182;2023-05-01T13:04:05;101146.84;;;21.41;45.89
12969;BME280;6549;53.128;8.182;2023-05-01T13:07:12;101135.84;;;21.59;46.44
12969;BME280;6549;53.128;8.182;2023-05-01T13:10:13;101141.03;;;21.70;45.25
12969;BME280;6549;53.128;8.182;2023-05-01T13:13:13;101139.03;;;22.05;44.49
12969;BME280;6549;53.128;8.182;2023-05-01T13:16:22;101140.22;;;22.16;45.13
12969;BME280;6549;53.128;8.182;2023-05-01T13:19:27;101134.47;;;21.98;44.88
12969;BME280;6549;53.128;8.182;2023-05-01T13:22:34;101142.13;;;21.85;45.50
12969;BME280;6549;53.128;8.182;2023-05-01T13:25:35;101141.81;;;21.70;46.56
12969;BME280;6549;53.128;8.182;2023-05-01T13:28:41;101137.63;;;21.53;47.14
12969;BME280;6549;53.128;8.182;2023-05-01T13:31:44;101138.03;;;21.17;47.25
12969;BME280;6549;53.128;8.182;2023-05-01T13:34:44;101130.19;;;21.25;47.93
12969;BME280;6549;53.128;8.182;2023-05-01T13:37:44;101137.97;;;21.55;47.65
12969;BME280;6549;53.128;8.182;2023-05-01T13:40:45;101134.78;;;21.66;47.00
12969;BME280;6549;53.128;8.182;2023-05-01T13:43:49;101128.91;;;21.51;48.14
12969;BME280;6549;53.128;8.182;2023-05-01T13:46:50;101122.88;;;21.52;47.85
12969;BME280;6549;53.128;8.182;2023-05-01T13:49:50;101124.59;;;21.37;47.91
12969;BME280;6549;53.128;8.182;2023-05-01T13:52:51;101121.69;;;21.41;49.56
12969;BME280;6549;53.128;8.182;2023-05-01T13:55:51;101129.63;;;21.77;46.57
12969;BME280;6549;53.128;8.182;2023-05-01T13:58:52;101123.16;;;22.02;46.46
12969;BME280;6549;53.128;8.182;2023-05-01T14:01:52;101125.09;;;22.35;46.91
12969;BME280;6549;53.128;8.182;2023-05-01T14:04:52;101124.81;;;22.43;46.20
12969;BME280;6549;53.128;8.182;2023-05-01T14:07:54;101130.56;;;22.39;46.46
12969;BME280;6549;53.128;8.182;2023-05-01T14:10:57;101129.25;;;22.31;44.83
12969;BME280;6549;53.128;8.182;2023-05-01T14:13:58;101135.25;;;22.42;44.98
12969;BME280;6549;53.128;8.182;2023-05-01T14:16:59;101134.75;;;22.34;45.56
12969;BME280;6549;53.128;8.182;2023-05-01T14:19:59;101128.50;;;22.30;45.65
12969;BME280;6549;53.128;8.182;2023-05-01T14:23:00;101124.50;;;22.19;45.62
12969;BME280;6549;53.128;8.182;2023-05-01T14:26:00;101128.13;;;21.85;47.63
12969;BME280;6549;53.128;8.182;2023-05-01T14:29:00;101134.66;;;21.69;47.06
12969;BME280;6549;53.128;8.182;2023-05-01T14:32:02;101128.16;;;21.38;48.24
12969;BME280;6549;53.128;8.182;2023-05-01T14:35:08;101133.97;;;21.43;48.54
12969;BME280;6549;53.128;8.182;2023-05-01T14:38:09;101130.56;;;21.61;48.24
12969;BME280;6549;53.128;8.182;2023-05-01T14:41:10;101136.19;;;21.83;48.83
12969;BME280;6549;53.128;8.182;2023-05-01T14:44:13;101134.28;;;21.58;47.25
12969;BME280;6549;53.128;8.182;2023-05-01T14:47:18;101133.56;;;21.32;47.72
12969;BME280;6549;53.128;8.182;2023-05-01T14:50:21;101141.84;;;21.23;47.26
12969;BME280;6549;53.128;8.182;2023-05-01T14:53:22;101130.31;;;21.08;45.94
12969;BME280;6549;53.128;8.182;2023-05-01T14:56:22;101133.84;;;21.47;46.32
12969;BME280;6549;53.128;8.182;2023-05-01T14:59:23;101143.69;;;21.39;45.04
12969;BME280;6549;53.128;8.182;2023-05-01T15:02:23;101135.75;;;21.50;46.25
12969;BME280;6549;53.128;8.182;2023-05-01T15:05:24;101143.56;;;21.42;46.56
12969;BME280;6549;53.128;8.182;2023-05-01T15:08:25;101139.03;;;21.11;46.20
12969;BME280;6549;53.128;8.182;2023-05-01T15:11:25;101149.63;;;20.90;48.00
12969;BME280;6549;53.128;8.182;2023-05-01T15:14:25;101146.84;;;20.90;46.87
12969;BME280;6549;53.128;8.182;2023-05-01T15:17:26;101150.06;;;20.76;45.79
12969;BME280;6549;53.128;8.182;2023-05-01T15:20:26;101146.06;;;20.65;45.86
12969;BME280;6549;53.128;8.182;2023-05-01T15:23:27;101154.00;;;20.91;45.18
12969;BME280;6549;53.128;8.182;2023-05-01T15:26:27;101141.72;;;21.01;44.67
12969;BME280;6549;53.128;8.182;2023-05-01T15:29:27;101160.03;;;21.02;44.84
12969;BME280;6549;53.128;8.182;2023-05-01T15:32:28;101154.91;;;20.88;49.46
12969;BME280;6549;53.128;8.182;2023-05-01T15:35:28;101150.06;;;20.63;51.15
12969;BME280;6549;53.128;8.182;2023-05-01T15:38:29;101152.75;;;19.97;52.06
12969;BME280;6549;53.128;8.182;2023-05-01T15:41:29;101149.63;;;20.24;52.44
12969;BME280;6549;53.128;8.182;2023-05-01T15:44:30;101156.59;;;20.03;52.63
12969;BME280;6549;53.128;8.182;2023-05-01T15:47:30;101154.34;;;20.27;52.52
12969;BME280;6549;53.128;8.182;2023-05-01T15:50:31;101158.94;;;20.04;51.74
12969;BME280;6549;53.128;8.182;2023-05-01T15:53:31;101152.06;;;19.64;53.19
12969;BME280;6549;53.128;8.182;2023-05-01T15:56:36;101159.53;;;19.02;54.13
12969;BME280;6549;53.128;8.182;2023-05-01T15:59:38;101150.13;;;18.96;55.07
12969;BME280;6549;53.128;8.182;2023-05-01T16:02:40;101149.53;;;18.69;56.53
12969;BME280;6549;53.128;8.182;2023-05-01T16:05:44;101157.09;;;18.68;56.82
12969;BME280;6549;53.128;8.182;2023-05-01T16:08:44;101159.44;;;18.50;57.83
12969;BME280;6549;53.128;8.182;2023-05-01T16:11:45;101158.69;;;18.50;58.74
12969;BME280;6549;53.128;8.182;2023-05-01T16:14:46;101152.69;;;18.71;57.16
12969;BME280;6549;53.128;8.182;2023-05-01T16:17:47;101162.66;;;18.68;55.73
12969;BME280;6549;53.128;8.182;2023-05-01T16:20:49;101166.88;;;18.76;55.67
12969;BME280;6549;53.128;8.182;2023-05-01T16:23:55;101164.84;;;18.61;55.93
12969;BME280;6549;53.128;8.182;2023-05-01T16:26:56;101164.34;;;18.66;55.60